sensor_id;sensor_type;location;lat;lon;timestamp;temperature;humidity
26621;DHT22;14253;44.840;10.444;2023-03-26T00:01:32;10.60;99.90
26621;DHT22;14253;44.840;10.444;2023-03-26T00:04:02;10.50;99.90
26621;DHT22;14253;44.840;10.444;2023-03-26T00:06:33;10.40;99.90
26621;DHT22;14253;44.840;10.444;2023-03-26T00:09:01;10.40;99.90
26621;DHT22;14253;44.840;10.444;2023-03-26T00:11:28;10.30;99.90
26621;DHT22;14253;44.840;10.444;2023-03-26T00:13:55;10.20;99.90
26621;DHT22;14253;44.840;10.444;2023-03-26T00:16:23;10.20;99.90
26621;DHT22;14253;44.840;10.444;2023-03-26T00:18:49;10.20;99.90
26621;DHT22;14253;44.840;10.444;2023-03-26T00:21:18;10.10;99.90
26621;DHT22;14253;44.840;10.444;2023-03-26T00:23:59;10.00;99.90
26621;DHT22;14253;44.840;10.444;2023-03-26T00:26:26;10.00;99.90
26621;DHT22;14253;44.840;10.444;2023-03-26T00:28:54;9.90;99.90
26621;DHT22;14253;44.840;10.444;2023-03-26T00:31:19;10.00;99.90
26621;DHT22;14253;44.840;10.444;2023-03-26T00:33:45;9.90;99.90
26621;DHT22;14253;44.840;10.444;2023-03-26T00:36:14;9.90;99.90
26621;DHT22;14253;44.840;10.444;2023-03-26T00:38:41;9.90;99.90
26621;DHT22;14253;44.840;10.444;2023-03-26T00:41:13;9.90;99.90
26621;DHT22;14253;44.840;10.444;2023-03-26T00:43:45;9.80;99.90
26621;DHT22;14253;44.840;10.444;2023-03-26T00:46:13;9.70;99.90
26621;DHT22;14253;44.840;10.444;2023-03-26T00:48:39;9.70;99.90
26621;DHT22;14253;44.840;10.444;2023-03-26T00:51:09;9.70;99.90
26621;DHT22;14253;44.840;10.444;2023-03-26T00:53:36;9.60;99.90
26621;DHT22;14253;44.840;10.444;2023-03-26T00:56:05;9.60;99.90
26621;DHT22;14253;44.840;10.444;2023-03-26T00:58:31;9.60;99.90
26621;DHT22;14253;44.840;10.444;2023-03-26T01:01:00;9.60;99.90
26621;DHT22;14253;44.840;10.444;2023-03-26T01:03:29;9.50;99.90
26621;DHT22;14253;44.840;10.444;2023-03-26T01:05:59;9.50;99.90
26621;DHT22;14253;44.840;10.444;2023-03-26T01:08:40;9.40;99.90
26621;DHT22;14253;44.840;10.444;2023-03-26T01:11:22;9.40;99.90
26621;DHT22;14253;44.840;10.444;2023-03-26T01:13:58;9.40;99.90
26621;DHT22;14253;44.840;10.444;2023-03-26T01:16:35;9.40;99.90
26621;DHT22;14253;44.840;10.444;2023-03-26T01:19:10;9.40;99.90
26621;DHT22;14253;44.840;10.444;2023-03-26T01:21:38;9.40;99.90
26621;DHT22;14253;44.840;10.444;2023-03-26T01:24:06;9.40;99.90
26621;DHT22;14253;44.840;10.444;2023-03-26T01:26:50;9.40;99.90
26621;DHT22;14253;44.840;10.444;2023-03-26T01:35:21;9.50;99.90
26621;DHT22;14253;44.840;10.444;2023-03-26T01:41:13;9.50;99.90
26621;DHT22;14253;44.840;10.444;2023-03-26T01:43:48;9.50;99.90
26621;DHT22;14253;44.840;10.444;2023-03-26T01:46:16;9.50;99.90
26621;DHT22;14253;44.840;10.444;2023-03-26T01:48:45;9.50;99.90
26621;DHT22;14253;44.840;10.444;2023-03-26T01:51:13;9.40;99.90
26621;DHT22;14253;44.840;10.444;2023-03-26T01:53:44;9.40;99.90
26621;DHT22;14253;44.840;10.444;2023-03-26T02:04:09;9.30;99.90
26621;DHT22;14253;44.840;10.444;2023-03-26T02:07:01;9.20;99.90
26621;DHT22;14253;44.840;10.444;2023-03-26T02:09:34;9.20;99.90
26621;DHT22;14253;44.840;10.444;2023-03-26T02:12:05;9.20;99.90
26621;DHT22;14253;44.840;10.444;2023-03-26T02:14:31;9.20;99.90
26621;DHT22;14253;44.840;10.444;2023-03-26T02:16:58;9.20;99.90
26621;DHT22;14253;44.840;10.444;2023-03-26T02:19:24;9.20;99.90
26621;DHT22;14253;44.840;10.444;2023-03-26T02:21:50;9.20;99.90
26621;DHT22;14253;44.840;10.444;2023-03-26T02:24:20;9.20;99.90
26621;DHT22;14253;44.840;10.444;2023-03-26T02:26:48;9.20;99.90
26621;DHT22;14253;44.840;10.444;2023-03-26T02:29:14;9.20;99.90
26621;DHT22;14253;44.840;10.444;2023-03-26T02:31:46;9.30;99.90
26621;DHT22;14253;44.840;10.444;2023-03-26T02:34:14;9.30;99.90
26621;DHT22;14253;44.840;10.444;2023-03-26T02:36:46;9.10;99.90
26621;DHT22;14253;44.840;10.444;2023-03-26T02:39:12;9.00;99.90
26621;DHT22;14253;44.840;10.444;2023-03-26T02:41:40;9.00;99.90
26621;DHT22;14253;44.840;10.444;2023-03-26T02:44:09;9.00;99.90
26621;DHT22;14253;44.840;10.444;2023-03-26T02:46:53;9.00;99.90
26621;DHT22;14253;44.840;10.444;2023-03-26T02:49:46;9.00;99.90
26621;DHT22;14253;44.840;10.444;2023-03-26T02:52:19;9.00;99.90
26621;DHT22;14253;44.840;10.444;2023-03-26T02:54:47;8.90;99.90
26621;DHT22;14253;44.840;10.444;2023-03-26T02:57:24;8.90;99.90
26621;DHT22;14253;44.840;10.444;2023-03-26T03:00:09;8.90;99.90
26621;DHT22;14253;44.840;10.444;2023-03-26T03:02:58;8.90;99.90
26621;DHT22;14253;44.840;10.444;2023-03-26T03:05:44;8.80;99.90
26621;DHT22;14253;44.840;10.444;2023-03-26T03:08:32;8.80;99.90
26621;DHT22;14253;44.840;10.444;2023-03-26T03:11:26;9.00;1.00
26621;DHT22;14253;44.840;10.444;2023-03-26T03:13:53;9.10;99.90
26621;DHT22;14253;44.840;10.444;2023-03-26T03:16:22;9.10;99.90
26621;DHT22;14253;44.840;10.444;2023-03-26T03:18:48;9.00;99.90
26621;DHT22;14253;44.840;10.444;2023-03-26T03:21:23;9.00;99.90
26621;DHT22;14253;44.840;10.444;2023-03-26T03:23:49;9.00;99.90
26621;DHT22;14253;44.840;10.444;2023-03-26T03:26:20;8.90;99.90
26621;DHT22;14253;44.840;10.444;2023-03-26T03:28:53;8.80;99.90
26621;DHT22;14253;44.840;10.444;2023-03-26T03:31:22;8.80;99.90
26621;DHT22;14253;44.840;10.444;2023-03-26T03:33:49;8.80;99.90
26621;DHT22;14253;44.840;10.444;2023-03-26T03:36:18;8.80;99.90
26621;DHT22;14253;44.840;10.444;2023-03-26T03:38:48;8.70;99.90
26621;DHT22;14253;44.840;10.444;2023-03-26T03:41:18;8.60;99.90
26621;DHT22;14253;44.840;10.444;2023-03-26T03:43:45;8.60;99.90
26621;DHT22;14253;44.840;10.444;2023-03-26T03:46:15;8.60;99.90
26621;DHT22;14253;44.840;10.444;2023-03-26T03:48:47;8.50;99.90
26621;DHT22;14253;44.840;10.444;2023-03-26T03:51:18;8.50;99.90
26621;DHT22;14253;44.840;10.444;2023-03-26T03:53:50;8.50;99.90
26621;DHT22;14253;44.840;10.444;2023-03-26T03:56:29;8.50;99.90
26621;DHT22;14253;44.840;10.444;2023-03-26T03:59:22;8.50;99.90
26621;DHT22;14253;44.840;10.444;2023-03-26T04:01:48;8.50;99.90
26621;DHT22;14253;44.840;10.444;2023-03-26T04:04:33;8.40;99.90
26621;DHT22;14253;44.840;10.444;2023-03-26T04:07:03;8.40;99.90
26621;DHT22;14253;44.840;10.444;2023-03-26T04:09:37;8.40;99.90
26621;DHT22;14253;44.840;10.444;2023-03-26T04:12:11;8.40;99.90
26621;DHT22;14253;44.840;10.444;2023-03-26T04:14:58;8.60;99.90
26621;DHT22;14253;44.840;10.444;2023-03-26T04:17:24;8.60;99.90
26621;DHT22;14253;44.840;10.444;2023-03-26T04:19:54;8.60;99.90
26621;DHT22;14253;44.840;10.444;2023-03-26T04:22:22;8.60;99.90
26621;DHT22;14253;44.840;10.444;2023-03-26T04:24:56;8.60;99.90
26621;DHT22;14253;44.840;10.444;2023-03-26T04:27:51;8.50;99.90
26621;DHT22;14253;44.840;10.444;2023-03-26T04:30:38;8.50;99.90
26621;DHT22;14253;44.840;10.444;2023-03-26T04:33:33;8.50;99.90
26621;DHT22;14253;44.840;10.444;2023-03-26T04:36:00;8.60;99.90
26621;DHT22;14253;44.840;10.444;2023-03-26T04:38:30;8.60;99.90
26621;DHT22;14253;44.840;10.444;2023-03-26T04:41:01;8.50;99.90
26621;DHT22;14253;44.840;10.444;2023-03-26T04:43:53;8.50;99.90
26621;DHT22;14253;44.840;10.444;2023-03-26T04:46:20;8.40;99.90
26621;DHT22;14253;44.840;10.444;2023-03-26T04:49:02;8.30;99.90
26621;DHT22;14253;44.840;10.444;2023-03-26T04:51:34;8.30;99.90
26621;DHT22;14253;44.840;10.444;2023-03-26T04:54:06;8.20;99.90
26621;DHT22;14253;44.840;10.444;2023-03-26T04:56:56;8.20;99.90
26621;DHT22;14253;44.840;10.444;2023-03-26T04:59:25;8.20;99.90
26621;DHT22;14253;44.840;10.444;2023-03-26T05:01:56;8.10;99.90
26621;DHT22;14253;44.840;10.444;2023-03-26T05:04:26;8.10;99.90
26621;DHT22;14253;44.840;10.444;2023-03-26T05:06:55;8.00;99.90
26621;DHT22;14253;44.840;10.444;2023-03-26T05:09:42;8.00;99.90
26621;DHT22;14253;44.840;10.444;2023-03-26T05:12:14;8.00;99.90
26621;DHT22;14253;44.840;10.444;2023-03-26T05:15:08;8.00;99.90
26621;DHT22;14253;44.840;10.444;2023-03-26T05:17:58;8.00;1.00
26621;DHT22;14253;44.840;10.444;2023-03-26T05:20:32;8.00;1.00
26621;DHT22;14253;44.840;10.444;2023-03-26T05:22:58;8.10;1.00
26621;DHT22;14253;44.840;10.444;2023-03-26T05:25:27;8.10;1.00
26621;DHT22;14253;44.840;10.444;2023-03-26T05:27:54;8.10;1.00
26621;DHT22;14253;44.840;10.444;2023-03-26T05:30:23;8.10;1.00
26621;DHT22;14253;44.840;10.444;2023-03-26T05:32:54;8.10;1.00
26621;DHT22;14253;44.840;10.444;2023-03-26T05:35:26;8.10;99.90
26621;DHT22;14253;44.840;10.444;2023-03-26T05:37:52;8.10;99.90
26621;DHT22;14253;44.840;10.444;2023-03-26T05:40:21;8.10;99.90
26621;DHT22;14253;44.840;10.444;2023-03-26T05:42:59;8.10;99.90
26621;DHT22;14253;44.840;10.444;2023-03-26T05:45:32;8.10;99.90
26621;DHT22;14253;44.840;10.444;2023-03-26T05:48:06;8.10;99.90
26621;DHT22;14253;44.840;10.444;2023-03-26T05:50:31;8.10;99.90
26621;DHT22;14253;44.840;10.444;2023-03-26T05:52:59;8.30;99.90
26621;DHT22;14253;44.840;10.444;2023-03-26T05:55:54;8.60;99.90
26621;DHT22;14253;44.840;10.444;2023-03-26T05:59:00;8.90;99.90
26621;DHT22;14253;44.840;10.444;2023-03-26T06:01:45;9.10;99.90
26621;DHT22;14253;44.840;10.444;2023-03-26T06:04:29;9.20;99.90
26621;DHT22;14253;44.840;10.444;2023-03-26T06:07:17;9.10;99.90
26621;DHT22;14253;44.840;10.444;2023-03-26T06:09:49;8.80;99.90
26621;DHT22;14253;44.840;10.444;2023-03-26T06:12:16;8.60;99.90
26621;DHT22;14253;44.840;10.444;2023-03-26T06:14:42;8.50;99.90
26621;DHT22;14253;44.840;10.444;2023-03-26T06:17:31;8.40;99.90
26621;DHT22;14253;44.840;10.444;2023-03-26T06:20:19;8.50;99.90
26621;DHT22;14253;44.840;10.444;2023-03-26T06:22:47;8.60;99.90
26621;DHT22;14253;44.840;10.444;2023-03-26T06:25:19;8.70;99.90
26621;DHT22;14253;44.840;10.444;2023-03-26T06:28:04;8.70;99.90
26621;DHT22;14253;44.840;10.444;2023-03-26T06:30:49;8.80;99.90
26621;DHT22;14253;44.840;10.444;2023-03-26T06:33:35;8.80;99.90
26621;DHT22;14253;44.840;10.444;2023-03-26T06:36:01;8.80;99.90
26621;DHT22;14253;44.840;10.444;2023-03-26T06:38:26;8.80;99.90
26621;DHT22;14253;44.840;10.444;2023-03-26T06:40:53;8.90;99.90
26621;DHT22;14253;44.840;10.444;2023-03-26T06:43:25;8.90;99.90
26621;DHT22;14253;44.840;10.444;2023-03-26T06:46:06;9.00;99.90
26621;DHT22;14253;44.840;10.444;2023-03-26T06:48:38;9.00;99.90
26621;DHT22;14253;44.840;10.444;2023-03-26T06:51:17;9.10;99.90
26621;DHT22;14253;44.840;10.444;2023-03-26T06:54:01;9.20;99.90
26621;DHT22;14253;44.840;10.444;2023-03-26T06:56:57;9.20;99.90
26621;DHT22;14253;44.840;10.444;2023-03-26T06:59:30;9.20;99.90
26621;DHT22;14253;44.840;10.444;2023-03-26T07:02:14;9.30;99.90
26621;DHT22;14253;44.840;10.444;2023-03-26T07:05:16;9.50;99.90
26621;DHT22;14253;44.840;10.444;2023-03-26T07:08:17;9.70;99.90
26621;DHT22;14253;44.840;10.444;2023-03-26T07:11:09;9.90;99.90
26621;DHT22;14253;44.840;10.444;2023-03-26T07:14:07;10.60;99.90
26621;DHT22;14253;44.840;10.444;2023-03-26T07:16:39;10.90;99.90
26621;DHT22;14253;44.840;10.444;2023-03-26T07:19:23;11.00;99.90
26621;DHT22;14253;44.840;10.444;2023-03-26T07:21:51;10.90;99.90
26621;DHT22;14253;44.840;10.444;2023-03-26T07:24:40;10.90;99.90
26621;DHT22;14253;44.840;10.444;2023-03-26T07:27:41;10.90;99.90
26621;DHT22;14253;44.840;10.444;2023-03-26T07:30:28;10.90;99.90
26621;DHT22;14253;44.840;10.444;2023-03-26T07:36:46;11.20;99.90
26621;DHT22;14253;44.840;10.444;2023-03-26T07:40:11;11.30;99.90
26621;DHT22;14253;44.840;10.444;2023-03-26T07:46:59;11.50;99.90
26621;DHT22;14253;44.840;10.444;2023-03-26T07:49:48;11.50;99.90
26621;DHT22;14253;44.840;10.444;2023-03-26T07:52:23;11.50;99.90
26621;DHT22;14253;44.840;10.444;2023-03-26T07:55:14;11.50;99.90
26621;DHT22;14253;44.840;10.444;2023-03-26T07:58:19;11.60;99.90
26621;DHT22;14253;44.840;10.444;2023-03-26T08:04:14;11.90;99.90
26621;DHT22;14253;44.840;10.444;2023-03-26T08:10:16;12.30;99.90
26621;DHT22;14253;44.840;10.444;2023-03-26T08:13:25;12.40;99.90
26621;DHT22;14253;44.840;10.444;2023-03-26T08:21:16;12.80;99.90
26621;DHT22;14253;44.840;10.444;2023-03-26T08:27:01;13.00;99.90
26621;DHT22;14253;44.840;10.444;2023-03-26T08:32:03;13.20;99.90
26621;DHT22;14253;44.840;10.444;2023-03-26T08:34:30;13.40;99.90
26621;DHT22;14253;44.840;10.444;2023-03-26T08:36:56;13.60;99.90
26621;DHT22;14253;44.840;10.444;2023-03-26T08:39:22;13.70;99.90
26621;DHT22;14253;44.840;10.444;2023-03-26T08:49:56;14.30;99.90
26621;DHT22;14253;44.840;10.444;2023-03-26T09:01:08;15.00;99.90
26621;DHT22;14253;44.840;10.444;2023-03-26T09:06:54;15.30;99.90
26621;DHT22;14253;44.840;10.444;2023-03-26T09:13:34;15.00;99.90
26621;DHT22;14253;44.840;10.444;2023-03-26T09:21:52;15.60;99.90
26621;DHT22;14253;44.840;10.444;2023-03-26T09:38:43;16.40;99.90
26621;DHT22;14253;44.840;10.444;2023-03-26T09:41:28;16.40;99.90
26621;DHT22;14253;44.840;10.444;2023-03-26T09:47:03;16.40;99.90
26621;DHT22;14253;44.840;10.444;2023-03-26T09:52:26;16.50;99.90
26621;DHT22;14253;44.840;10.444;2023-03-26T09:55:30;16.50;99.90
26621;DHT22;14253;44.840;10.444;2023-03-26T09:58:05;16.60;99.90
26621;DHT22;14253;44.840;10.444;2023-03-26T10:03:35;17.00;99.90
26621;DHT22;14253;44.840;10.444;2023-03-26T10:09:00;16.90;99.90
26621;DHT22;14253;44.840;10.444;2023-03-26T10:11:34;16.70;99.90
26621;DHT22;14253;44.840;10.444;2023-03-26T10:19:57;16.50;99.90
26621;DHT22;14253;44.840;10.444;2023-03-26T10:25:52;16.50;99.90
26621;DHT22;14253;44.840;10.444;2023-03-26T10:28:43;16.60;99.90
26621;DHT22;14253;44.840;10.444;2023-03-26T10:34:18;17.80;99.90
26621;DHT22;14253;44.840;10.444;2023-03-26T10:36:56;18.10;99.90
26621;DHT22;14253;44.840;10.444;2023-03-26T10:40:06;18.00;99.90
26621;DHT22;14253;44.840;10.444;2023-03-26T10:42:51;17.90;99.90
26621;DHT22;14253;44.840;10.444;2023-03-26T10:51:20;17.70;99.90
26621;DHT22;14253;44.840;10.444;2023-03-26T10:53:52;18.00;99.90
26621;DHT22;14253;44.840;10.444;2023-03-26T10:56:25;18.00;99.90
26621;DHT22;14253;44.840;10.444;2023-03-26T10:58:54;18.30;99.90
26621;DHT22;14253;44.840;10.444;2023-03-26T11:01:36;18.20;99.90
26621;DHT22;14253;44.840;10.444;2023-03-26T11:10:01;18.30;99.90
26621;DHT22;14253;44.840;10.444;2023-03-26T11:13:36;18.30;99.90
26621;DHT22;14253;44.840;10.444;2023-03-26T11:15:36;18.60;99.90
26621;DHT22;14253;44.840;10.444;2023-03-26T11:20:52;19.20;99.90
26621;DHT22;14253;44.840;10.444;2023-03-26T11:23:34;19.50;99.90
26621;DHT22;14253;44.840;10.444;2023-03-26T11:29:21;19.80;99.90
26621;DHT22;14253;44.840;10.444;2023-03-26T11:32:16;19.90;99.90
26621;DHT22;14253;44.840;10.444;2023-03-26T11:37:45;19.90;99.90
26621;DHT22;14253;44.840;10.444;2023-03-26T11:40:42;20.00;99.90
26621;DHT22;14253;44.840;10.444;2023-03-26T11:43:23;20.20;99.90
26621;DHT22;14253;44.840;10.444;2023-03-26T11:45:51;20.40;99.90
26621;DHT22;14253;44.840;10.444;2023-03-26T11:50:54;21.00;99.90
26621;DHT22;14253;44.840;10.444;2023-03-26T11:53:26;21.30;99.90
26621;DHT22;14253;44.840;10.444;2023-03-26T11:56:03;21.40;99.90
26621;DHT22;14253;44.840;10.444;2023-03-26T11:58:37;21.60;99.90
26621;DHT22;14253;44.840;10.444;2023-03-26T12:01:26;21.90;99.90
26621;DHT22;14253;44.840;10.444;2023-03-26T12:04:13;21.80;99.90
26621;DHT22;14253;44.840;10.444;2023-03-26T12:06:53;21.50;99.90
26621;DHT22;14253;44.840;10.444;2023-03-26T12:09:21;21.40;99.90
26621;DHT22;14253;44.840;10.444;2023-03-26T12:11:52;21.30;99.90
26621;DHT22;14253;44.840;10.444;2023-03-26T12:14:28;21.00;99.90
26621;DHT22;14253;44.840;10.444;2023-03-26T12:19:38;20.50;99.90
26621;DHT22;14253;44.840;10.444;2023-03-26T12:22:05;20.30;99.90
26621;DHT22;14253;44.840;10.444;2023-03-26T12:24:33;20.00;99.90
26621;DHT22;14253;44.840;10.444;2023-03-26T12:27:05;20.10;99.90
26621;DHT22;14253;44.840;10.444;2023-03-26T12:29:51;20.20;99.90
26621;DHT22;14253;44.840;10.444;2023-03-26T12:32:19;20.20;99.90
26621;DHT22;14253;44.840;10.444;2023-03-26T12:34:46;20.10;99.90
26621;DHT22;14253;44.840;10.444;2023-03-26T12:37:34;20.20;99.90
26621;DHT22;14253;44.840;10.444;2023-03-26T12:45:55;19.60;99.90
26621;DHT22;14253;44.840;10.444;2023-03-26T12:48:23;19.60;99.90
26621;DHT22;14253;44.840;10.444;2023-03-26T12:51:09;19.40;99.90
26621;DHT22;14253;44.840;10.444;2023-03-26T12:53:59;19.10;99.90
26621;DHT22;14253;44.840;10.444;2023-03-26T12:56:34;19.20;99.90
26621;DHT22;14253;44.840;10.444;2023-03-26T13:15:44;18.40;99.90
26621;DHT22;14253;44.840;10.444;2023-03-26T13:21:25;18.50;99.90
26621;DHT22;14253;44.840;10.444;2023-03-26T13:29:23;18.60;99.90
26621;DHT22;14253;44.840;10.444;2023-03-26T13:32:07;18.60;99.90
26621;DHT22;14253;44.840;10.444;2023-03-26T13:37:30;18.70;99.90
26621;DHT22;14253;44.840;10.444;2023-03-26T13:40:33;18.60;99.90
26621;DHT22;14253;44.840;10.444;2023-03-26T13:46:15;18.40;99.90
26621;DHT22;14253;44.840;10.444;2023-03-26T13:49:25;18.40;99.90
26621;DHT22;14253;44.840;10.444;2023-03-26T13:51:57;18.40;99.90
26621;DHT22;14253;44.840;10.444;2023-03-26T13:54:46;18.40;99.90
26621;DHT22;14253;44.840;10.444;2023-03-26T13:57:21;18.40;99.90
26621;DHT22;14253;44.840;10.444;2023-03-26T13:59:56;18.30;99.90
26621;DHT22;14253;44.840;10.444;2023-03-26T14:02:36;18.30;99.90
26621;DHT22;14253;44.840;10.444;2023-03-26T14:05:32;18.30;99.90
26621;DHT22;14253;44.840;10.444;2023-03-26T14:10:34;17.90;99.90
26621;DHT22;14253;44.840;10.444;2023-03-26T14:13:25;17.70;99.90
26621;DHT22;14253;44.840;10.444;2023-03-26T14:16:01;17.50;99.90
26621;DHT22;14253;44.840;10.444;2023-03-26T14:21:53;17.30;99.90
26621;DHT22;14253;44.840;10.444;2023-03-26T14:24:26;17.20;99.90
26621;DHT22;14253;44.840;10.444;2023-03-26T14:29:40;17.20;99.90
26621;DHT22;14253;44.840;10.444;2023-03-26T14:40:30;17.10;99.90
26621;DHT22;14253;44.840;10.444;2023-03-26T14:46:13;17.00;99.90
26621;DHT22;14253;44.840;10.444;2023-03-26T14:52:09;17.00;99.90
26621;DHT22;14253;44.840;10.444;2023-03-26T14:54:45;16.90;99.90
26621;DHT22;14253;44.840;10.444;2023-03-26T14:57:32;16.90;99.90
26621;DHT22;14253;44.840;10.444;2023-03-26T15:06:25;16.80;99.90
26621;DHT22;14253;44.840;10.444;2023-03-26T15:15:17;16.60;99.90
26621;DHT22;14253;44.840;10.444;2023-03-26T15:20:43;16.50;99.90
26621;DHT22;14253;44.840;10.444;2023-03-26T15:34:55;16.20;99.90
26621;DHT22;14253;44.840;10.444;2023-03-26T15:40:39;14.10;99.90
26621;DHT22;14253;44.840;10.444;2023-03-26T15:43:12;13.60;99.90
26621;DHT22;14253;44.840;10.444;2023-03-26T15:45:52;13.10;1.00
26621;DHT22;14253;44.840;10.444;2023-03-26T16:00:24;12.20;1.00
26621;DHT22;14253;44.840;10.444;2023-03-26T16:11:08;12.20;1.00
26621;DHT22;14253;44.840;10.444;2023-03-26T16:13:42;12.10;1.00
26621;DHT22;14253;44.840;10.444;2023-03-26T16:16:22;12.00;1.00
26621;DHT22;14253;44.840;10.444;2023-03-26T16:18:57;12.00;1.00
26621;DHT22;14253;44.840;10.444;2023-03-26T16:24:24;11.60;1.00
26621;DHT22;14253;44.840;10.444;2023-03-26T16:27:00;11.40;1.00
26621;DHT22;14253;44.840;10.444;2023-03-26T16:29:27;11.30;1.00
26621;DHT22;14253;44.840;10.444;2023-03-26T16:34:46;11.10;1.00
26621;DHT22;14253;44.840;10.444;2023-03-26T16:50:55;10.80;1.00
26621;DHT22;14253;44.840;10.444;2023-03-26T16:59:08;10.50;1.00
26621;DHT22;14253;44.840;10.444;2023-03-26T17:04:12;10.40;1.00
26621;DHT22;14253;44.840;10.444;2023-03-26T17:12:32;10.40;1.00
26621;DHT22;14253;44.840;10.444;2023-03-26T17:15:25;10.30;1.00
26621;DHT22;14253;44.840;10.444;2023-03-26T17:18:13;10.30;1.00
26621;DHT22;14253;44.840;10.444;2023-03-26T17:23:58;10.30;1.00
26621;DHT22;14253;44.840;10.444;2023-03-26T17:26:39;10.30;1.00
26621;DHT22;14253;44.840;10.444;2023-03-26T17:29:25;10.30;1.00
26621;DHT22;14253;44.840;10.444;2023-03-26T17:32:09;10.40;1.00
26621;DHT22;14253;44.840;10.444;2023-03-26T17:50:03;10.50;1.00
26621;DHT22;14253;44.840;10.444;2023-03-26T17:55:17;10.50;1.00
26621;DHT22;14253;44.840;10.444;2023-03-26T17:57:52;10.50;1.00
26621;DHT22;14253;44.840;10.444;2023-03-26T18:00:25;10.50;1.00
26621;DHT22;14253;44.840;10.444;2023-03-26T18:03:19;10.50;1.00
26621;DHT22;14253;44.840;10.444;2023-03-26T18:06:16;10.50;1.00
26621;DHT22;14253;44.840;10.444;2023-03-26T18:16:47;10.40;1.00
26621;DHT22;14253;44.840;10.444;2023-03-26T18:19:16;10.40;1.00
26621;DHT22;14253;44.840;10.444;2023-03-26T18:21:57;10.30;1.00
26621;DHT22;14253;44.840;10.444;2023-03-26T18:24:27;10.40;1.00
26621;DHT22;14253;44.840;10.444;2023-03-26T18:27:00;10.30;1.00
26621;DHT22;14253;44.840;10.444;2023-03-26T18:29:31;10.30;1.00
26621;DHT22;14253;44.840;10.444;2023-03-26T18:34:39;10.20;1.00
26621;DHT22;14253;44.840;10.444;2023-03-26T18:37:18;10.10;1.00
26621;DHT22;14253;44.840;10.444;2023-03-26T18:40:00;10.10;1.00
26621;DHT22;14253;44.840;10.444;2023-03-26T18:42:33;10.00;1.00
26621;DHT22;14253;44.840;10.444;2023-03-26T18:45:02;9.80;1.00
26621;DHT22;14253;44.840;10.444;2023-03-26T18:47:30;9.70;1.00
26621;DHT22;14253;44.840;10.444;2023-03-26T18:49:57;9.60;1.00
26621;DHT22;14253;44.840;10.444;2023-03-26T18:52:27;9.60;1.00
26621;DHT22;14253;44.840;10.444;2023-03-26T18:54:54;9.50;1.00
26621;DHT22;14253;44.840;10.444;2023-03-26T18:57:26;9.40;1.00
26621;DHT22;14253;44.840;10.444;2023-03-26T18:59:54;9.40;1.00
26621;DHT22;14253;44.840;10.444;2023-03-26T19:02:21;9.40;1.00
26621;DHT22;14253;44.840;10.444;2023-03-26T19:04:49;9.40;1.00
26621;DHT22;14253;44.840;10.444;2023-03-26T19:07:22;9.40;1.00
26621;DHT22;14253;44.840;10.444;2023-03-26T19:09:50;9.40;1.00
26621;DHT22;14253;44.840;10.444;2023-03-26T19:12:28;9.50;1.00
26621;DHT22;14253;44.840;10.444;2023-03-26T19:17:31;9.50;1.00
26621;DHT22;14253;44.840;10.444;2023-03-26T19:19:59;9.40;1.00
26621;DHT22;14253;44.840;10.444;2023-03-26T19:22:27;9.50;1.00
26621;DHT22;14253;44.840;10.444;2023-03-26T19:24:57;9.40;1.00
26621;DHT22;14253;44.840;10.444;2023-03-26T19:27:24;9.50;1.00
26621;DHT22;14253;44.840;10.444;2023-03-26T19:29:51;9.40;1.00
26621;DHT22;14253;44.840;10.444;2023-03-26T19:32:28;9.30;1.00
26621;DHT22;14253;44.840;10.444;2023-03-26T19:34:58;9.40;1.00
26621;DHT22;14253;44.840;10.444;2023-03-26T19:37:27;9.40;1.00
26621;DHT22;14253;44.840;10.444;2023-03-26T19:40:10;9.40;1.00
26621;DHT22;14253;44.840;10.444;2023-03-26T19:42:37;9.30;1.00
26621;DHT22;14253;44.840;10.444;2023-03-26T19:45:04;9.30;1.00
26621;DHT22;14253;44.840;10.444;2023-03-26T19:47:42;9.30;1.00
26621;DHT22;14253;44.840;10.444;2023-03-26T19:50:28;9.40;1.00
26621;DHT22;14253;44.840;10.444;2023-03-26T19:53:19;9.40;1.00
26621;DHT22;14253;44.840;10.444;2023-03-26T19:55:56;9.50;1.00
26621;DHT22;14253;44.840;10.444;2023-03-26T19:58:23;9.50;1.00
26621;DHT22;14253;44.840;10.444;2023-03-26T20:00:50;9.60;1.00
26621;DHT22;14253;44.840;10.444;2023-03-26T20:03:22;9.60;1.00
26621;DHT22;14253;44.840;10.444;2023-03-26T20:05:48;9.60;1.00
26621;DHT22;14253;44.840;10.444;2023-03-26T20:08:15;9.60;1.00
26621;DHT22;14253;44.840;10.444;2023-03-26T20:10:42;9.70;1.00
26621;DHT22;14253;44.840;10.444;2023-03-26T20:13:15;9.70;1.00
26621;DHT22;14253;44.840;10.444;2023-03-26T20:15:46;9.70;1.00
26621;DHT22;14253;44.840;10.444;2023-03-26T20:18:13;9.70;1.00
26621;DHT22;14253;44.840;10.444;2023-03-26T20:20:39;9.70;1.00
26621;DHT22;14253;44.840;10.444;2023-03-26T20:23:11;9.60;1.00
26621;DHT22;14253;44.840;10.444;2023-03-26T20:25:42;9.60;1.00
26621;DHT22;14253;44.840;10.444;2023-03-26T20:28:10;9.50;1.00
26621;DHT22;14253;44.840;10.444;2023-03-26T20:30:37;9.40;1.00
26621;DHT22;14253;44.840;10.444;2023-03-26T20:33:03;9.40;1.00
26621;DHT22;14253;44.840;10.444;2023-03-26T20:35:31;9.40;1.00
26621;DHT22;14253;44.840;10.444;2023-03-26T20:38:10;9.40;1.00
26621;DHT22;14253;44.840;10.444;2023-03-26T20:40:36;9.40;1.00
26621;DHT22;14253;44.840;10.444;2023-03-26T20:43:03;9.40;1.00
26621;DHT22;14253;44.840;10.444;2023-03-26T20:45:31;9.40;1.00
26621;DHT22;14253;44.840;10.444;2023-03-26T20:47:57;9.40;1.00
26621;DHT22;14253;44.840;10.444;2023-03-26T20:50:24;9.40;1.00
26621;DHT22;14253;44.840;10.444;2023-03-26T20:52:51;9.30;1.00
26621;DHT22;14253;44.840;10.444;2023-03-26T20:55:19;9.30;1.00
26621;DHT22;14253;44.840;10.444;2023-03-26T20:57:49;9.30;1.00
26621;DHT22;14253;44.840;10.444;2023-03-26T21:00:16;9.30;1.00
26621;DHT22;14253;44.840;10.444;2023-03-26T21:02:45;9.30;1.00
26621;DHT22;14253;44.840;10.444;2023-03-26T21:05:12;9.20;1.00
26621;DHT22;14253;44.840;10.444;2023-03-26T21:07:44;9.20;1.00
26621;DHT22;14253;44.840;10.444;2023-03-26T21:10:11;9.20;1.00
26621;DHT22;14253;44.840;10.444;2023-03-26T21:12:57;9.10;1.00
26621;DHT22;14253;44.840;10.444;2023-03-26T21:15:26;9.10;1.00
26621;DHT22;14253;44.840;10.444;2023-03-26T21:17:53;9.00;1.00
26621;DHT22;14253;44.840;10.444;2023-03-26T21:20:23;9.00;1.00
26621;DHT22;14253;44.840;10.444;2023-03-26T21:28:30;9.00;1.00
26621;DHT22;14253;44.840;10.444;2023-03-26T21:30:58;9.00;1.00
26621;DHT22;14253;44.840;10.444;2023-03-26T21:33:25;9.00;1.00
26621;DHT22;14253;44.840;10.444;2023-03-26T21:35:52;9.10;1.00
26621;DHT22;14253;44.840;10.444;2023-03-26T21:38:19;9.00;1.00
26621;DHT22;14253;44.840;10.444;2023-03-26T21:40:53;9.00;1.00